createdAt,value
2023-02-01T00:00:54.564Z,0.00
2023-02-01T00:01:52.694Z,0.00
2023-02-01T00:02:53.820Z,0.00
2023-02-01T00:03:51.225Z,0.00
2023-02-01T00:04:52.219Z,0.00
2023-02-01T00:05:52.003Z,0.00
2023-02-01T00:06:53.375Z,0.00
2023-02-01T00:07:52.085Z,0.00
2023-02-01T00:08:53.632Z,0.00
2023-02-01T00:09:53.813Z,0.00
2023-02-01T00:10:53.186Z,0.00
2023-02-01T00:11:51.709Z,0.00
2023-02-01T00:12:53.807Z,0.00
2023-02-01T00:13:50.910Z,0.00
2023-02-01T00:14:53.547Z,0.00
2023-02-01T00:15:52.953Z,0.00
2023-02-01T00:16:53.645Z,0.00
2023-02-01T00:17:52.279Z,0.00
2023-02-01T00:18:53.499Z,0.00
2023-02-01T00:19:50.161Z,0.00
2023-02-01T00:20:51.650Z,0.00
2023-02-01T00:21:52.513Z,0.00
2023-02-01T00:22:52.339Z,0.00
2023-02-01T00:23:53.235Z,0.00
2023-02-01T00:24:53.834Z,0.00
2023-02-01T00:25:54.518Z,0.00
2023-02-01T00:26:53.003Z,0.00
2023-02-01T00:27:53.182Z,0.00
2023-02-01T00:28:49.138Z,0.00
2023-02-01T00:29:51.730Z,0.00
2023-02-01T00:30:52.639Z,0.00
2023-02-01T00:31:52.929Z,0.00
2023-02-01T00:32:53.031Z,0.00
2023-02-01T00:33:51.541Z,0.00
2023-02-01T00:34:53.167Z,0.00
2023-02-01T00:35:53.061Z,0.00
2023-02-01T00:36:54.241Z,0.00
2023-02-01T00:37:52.237Z,0.00
2023-02-01T00:38:53.456Z,0.00
2023-02-01T00:39:48.791Z,0.00
2023-02-01T00:40:48.729Z,0.00
2023-02-01T00:41:48.760Z,0.00
2023-02-01T00:42:48.697Z,0.00
2023-02-01T00:43:48.780Z,0.00
2023-02-01T00:44:48.846Z,0.00
2023-02-01T00:45:48.761Z,0.00
2023-02-01T00:46:49.160Z,0.00
2023-02-01T00:47:48.693Z,0.00
2023-02-01T00:48:49.672Z,0.00
2023-02-01T00:49:48.673Z,0.00
2023-02-01T00:50:48.818Z,0.00
2023-02-01T00:51:48.750Z,0.00
2023-02-01T00:52:48.873Z,0.00
2023-02-01T00:53:48.640Z,0.00
2023-02-01T00:54:48.676Z,0.00
2023-02-01T00:55:52.123Z,0.00
2023-02-01T00:56:48.662Z,0.00
2023-02-01T00:57:48.643Z,0.00
2023-02-01T00:58:48.593Z,0.00
2023-02-01T00:59:49.136Z,0.00
2023-02-01T01:00:50.171Z,0.00
2023-02-01T01:01:54.115Z,0.00
2023-02-01T01:02:49.784Z,0.00
2023-02-01T01:03:48.614Z,0.00
2023-02-01T01:04:48.557Z,0.00
2023-02-01T01:05:48.821Z,0.00
2023-02-01T01:06:49.508Z,0.00
2023-02-01T01:07:48.493Z,0.00
2023-02-01T01:08:48.648Z,0.00
2023-02-01T01:09:48.414Z,0.00
2023-02-01T01:10:48.859Z,0.00
2023-02-01T01:11:48.509Z,0.00
2023-02-01T01:12:48.409Z,0.00
2023-02-01T01:13:48.458Z,0.00
2023-02-01T01:14:48.366Z,0.00
2023-02-01T01:15:48.372Z,0.00
2023-02-01T01:16:48.647Z,0.00
2023-02-01T01:17:48.401Z,0.00
2023-02-01T01:18:48.508Z,0.00
2023-02-01T01:19:48.555Z,0.00
2023-02-01T01:20:48.510Z,0.00
2023-02-01T01:21:48.362Z,0.00
2023-02-01T01:22:48.317Z,0.00
2023-02-01T01:23:48.296Z,0.00
2023-02-01T01:24:48.340Z,0.00
2023-02-01T01:25:48.300Z,0.00
2023-02-01T01:26:48.263Z,0.00
2023-02-01T01:27:48.316Z,0.00
2023-02-01T01:28:48.414Z,0.00
2023-02-01T01:29:48.278Z,0.00
2023-02-01T01:30:48.267Z,0.00
2023-02-01T01:31:48.249Z,0.00
2023-02-01T01:32:50.452Z,0.00
2023-02-01T01:33:50.179Z,0.00
2023-02-01T01:34:53.429Z,0.00
2023-02-01T01:35:49.551Z,0.00
2023-02-01T01:36:48.143Z,0.00
2023-02-01T01:37:48.163Z,0.00
2023-02-01T01:38:48.157Z,0.00
2023-02-01T01:39:48.206Z,0.00
2023-02-01T01:40:48.169Z,0.00
2023-02-01T01:41:48.177Z,0.00
2023-02-01T01:42:48.091Z,0.00
2023-02-01T01:43:48.257Z,0.00
2023-02-01T01:44:48.087Z,0.00
2023-02-01T01:45:48.063Z,0.00
2023-02-01T01:46:48.107Z,0.00
2023-02-01T01:47:48.039Z,0.00
2023-02-01T01:48:48.121Z,0.00
2023-02-01T01:49:48.120Z,0.00
2023-02-01T01:50:48.020Z,0.00
2023-02-01T01:51:49.016Z,0.00
2023-02-01T01:52:53.415Z,0.00
2023-02-01T01:53:53.621Z,0.00
2023-02-01T01:54:50.848Z,0.00
2023-02-01T01:55:51.166Z,0.00
2023-02-01T01:56:52.441Z,0.00
2023-02-01T01:57:53.468Z,0.00
2023-02-01T01:58:51.338Z,0.00
2023-02-01T01:59:49.951Z,0.00
2023-02-01T02:00:51.095Z,0.00
2023-02-01T02:01:51.967Z,0.00
2023-02-01T02:02:51.087Z,0.00
2023-02-01T02:03:50.199Z,0.00
2023-02-01T02:04:47.943Z,0.00
2023-02-01T02:05:47.966Z,0.00
2023-02-01T02:06:47.882Z,0.00
2023-02-01T02:07:47.905Z,0.00
2023-02-01T02:08:47.785Z,0.00
2023-02-01T02:09:59.504Z,0.00
2023-02-01T02:10:49.874Z,0.00
2023-02-01T02:11:48.010Z,0.00
2023-02-01T02:12:47.764Z,0.00
2023-02-01T02:13:47.959Z,0.00
2023-02-01T02:14:47.849Z,0.00
2023-02-01T02:15:47.760Z,0.00
2023-02-01T02:16:47.922Z,0.00
2023-02-01T02:17:47.725Z,0.00
2023-02-01T02:18:48.166Z,0.00
2023-02-01T02:19:49.158Z,0.00
2023-02-01T02:20:47.773Z,0.00
2023-02-01T02:21:50.777Z,0.00
2023-02-01T02:22:49.898Z,0.00
2023-02-01T02:23:48.701Z,0.00
2023-02-01T02:24:47.729Z,0.00
2023-02-01T02:25:47.692Z,0.00
2023-02-01T02:26:47.804Z,0.00
2023-02-01T02:27:47.676Z,0.00
2023-02-01T02:28:47.665Z,0.00
2023-02-01T02:29:47.659Z,0.00
2023-02-01T02:30:50.949Z,0.00
2023-02-01T02:31:52.875Z,0.00
2023-02-01T02:32:47.773Z,0.00
2023-02-01T02:33:47.989Z,0.00
2023-02-01T02:34:47.859Z,0.00
2023-02-01T02:35:47.553Z,0.00
2023-02-01T02:36:47.546Z,0.00
2023-02-01T02:37:47.558Z,0.00
2023-02-01T02:38:47.678Z,0.00
2023-02-01T02:39:48.731Z,0.00
2023-02-01T02:40:51.978Z,0.00
2023-02-01T02:41:48.812Z,0.00
2023-02-01T02:42:52.468Z,0.00
2023-02-01T02:43:52.252Z,0.00
2023-02-01T02:44:52.463Z,0.00
2023-02-01T02:45:49.628Z,0.00
2023-02-01T02:46:49.250Z,0.00
2023-02-01T02:47:52.596Z,0.00
2023-02-01T02:48:50.929Z,0.00
2023-02-01T02:49:50.025Z,0.00
2023-02-01T02:50:48.953Z,0.00
2023-02-01T02:51:50.470Z,0.00
2023-02-01T02:52:47.794Z,0.00
2023-02-01T02:53:47.455Z,0.00
2023-02-01T02:54:47.557Z,0.00
2023-02-01T02:55:52.937Z,0.00
2023-02-01T02:56:48.757Z,0.00
2023-02-01T02:57:53.632Z,0.00
2023-02-01T02:58:50.689Z,0.00
2023-02-01T02:59:48.371Z,0.00
2023-02-01T03:00:50.135Z,0.00
2023-02-01T03:01:48.616Z,0.00
2023-02-01T03:02:48.075Z,0.00
2023-02-01T03:03:48.750Z,0.00
2023-02-01T03:04:50.213Z,0.00
2023-02-01T03:05:48.188Z,0.00
2023-02-01T03:06:47.664Z,0.00
2023-02-01T03:07:47.759Z,0.00
2023-02-01T03:08:47.183Z,0.00
2023-02-01T03:09:47.193Z,0.00
2023-02-01T03:10:47.143Z,0.00
2023-02-01T03:11:47.173Z,0.00
2023-02-01T03:12:47.121Z,0.00
2023-02-01T03:13:49.704Z,0.00
2023-02-01T03:14:47.276Z,0.00
2023-02-01T03:15:48.496Z,0.00
2023-02-01T03:16:48.263Z,0.00
2023-02-01T03:17:48.361Z,0.00
2023-02-01T03:18:49.456Z,0.00
2023-02-01T03:19:49.706Z,0.00
2023-02-01T03:20:49.400Z,0.00
2023-02-01T03:21:48.484Z,0.00
2023-02-01T03:22:49.216Z,0.00
2023-02-01T03:23:51.606Z,0.00
2023-02-01T03:24:48.705Z,0.00
2023-02-01T03:25:50.195Z,0.00
2023-02-01T03:26:48.008Z,0.00
2023-02-01T03:27:49.649Z,0.00
2023-02-01T03:28:48.158Z,0.00
2023-02-01T03:29:48.218Z,0.00
2023-02-01T03:30:50.957Z,0.00
2023-02-01T03:31:49.750Z,0.00
2023-02-01T03:32:48.251Z,0.00
2023-02-01T03:33:50.074Z,0.00
2023-02-01T03:34:51.595Z,0.00
2023-02-01T03:35:49.462Z,0.00
2023-02-01T03:36:50.655Z,0.00
2023-02-01T03:37:50.623Z,0.00
2023-02-01T03:39:20.502Z,0.00
2023-02-01T03:40:20.555Z,0.00
2023-02-01T03:41:20.448Z,0.00
2023-02-01T03:41:49.151Z,0.00
2023-02-01T03:42:48.246Z,0.00
2023-02-01T03:44:19.173Z,0.00
2023-02-01T03:45:21.564Z,0.00
2023-02-01T03:45:48.175Z,0.00
2023-02-01T03:47:19.130Z,0.00
2023-02-01T03:47:50.127Z,0.00
2023-02-01T03:49:20.070Z,0.00
2023-02-01T03:50:22.014Z,0.00
2023-02-01T03:51:19.082Z,0.00
2023-02-01T03:52:19.066Z,0.00
2023-02-01T03:53:19.065Z,0.00
2023-02-01T03:54:19.064Z,0.00
2023-02-01T03:55:20.195Z,0.00
2023-02-01T03:56:19.034Z,0.00
2023-02-01T03:56:47.962Z,0.00
2023-02-01T03:57:48.417Z,0.00
2023-02-01T03:58:46.812Z,0.00
2023-02-01T03:59:46.639Z,0.00
2023-02-01T04:00:46.654Z,0.00
2023-02-01T04:01:46.592Z,0.00
2023-02-01T04:02:46.626Z,0.00
2023-02-01T04:03:46.569Z,0.00
2023-02-01T04:04:46.598Z,0.00
2023-02-01T04:05:46.616Z,0.00
2023-02-01T04:06:46.891Z,0.00
2023-02-01T04:07:46.547Z,0.00
2023-02-01T04:08:46.556Z,0.00
2023-02-01T04:09:46.520Z,0.00
2023-02-01T04:10:46.564Z,0.00
2023-02-01T04:11:46.728Z,0.00
2023-02-01T04:12:47.949Z,0.00
2023-02-01T04:13:47.628Z,0.00
2023-02-01T04:14:47.844Z,0.00
2023-02-01T04:15:47.396Z,0.00
2023-02-01T04:16:46.958Z,0.00
2023-02-01T04:17:48.612Z,0.00
2023-02-01T04:18:46.922Z,0.00
2023-02-01T04:19:47.215Z,0.00
2023-02-01T04:20:46.496Z,0.00
2023-02-01T04:21:46.502Z,0.00
2023-02-01T04:22:48.743Z,0.00
2023-02-01T04:23:48.674Z,0.00
2023-02-01T04:24:48.528Z,0.00
2023-02-01T04:25:48.749Z,0.00
2023-02-01T04:26:46.305Z,0.00
2023-02-01T04:27:46.660Z,0.00
2023-02-01T04:28:47.684Z,0.00
2023-02-01T04:29:47.313Z,0.00
2023-02-01T04:30:46.990Z,0.00
2023-02-01T04:31:46.347Z,0.00
2023-02-01T04:32:47.852Z,0.00
2023-02-01T04:33:49.449Z,0.00
2023-02-01T04:34:47.379Z,0.00
2023-02-01T04:35:48.993Z,0.00
2023-02-01T04:36:47.668Z,0.00
2023-02-01T04:37:47.345Z,0.00
2023-02-01T04:38:46.212Z,0.00
2023-02-01T04:39:46.377Z,0.00
2023-02-01T04:40:47.442Z,0.00
2023-02-01T04:41:48.226Z,0.00
2023-02-01T04:42:46.255Z,0.00
2023-02-01T04:43:47.029Z,0.00
2023-02-01T04:44:48.973Z,0.00
2023-02-01T04:45:47.390Z,0.00
2023-02-01T04:46:48.542Z,0.00
2023-02-01T04:47:48.506Z,0.00
2023-02-01T04:48:47.558Z,0.00
2023-02-01T04:49:49.146Z,0.00
2023-02-01T04:50:47.950Z,0.00
2023-02-01T04:51:48.120Z,0.00
2023-02-01T04:52:47.170Z,0.00
2023-02-01T04:53:47.230Z,0.00
2023-02-01T04:54:46.234Z,0.00
2023-02-01T04:55:46.060Z,0.00
2023-02-01T04:56:46.036Z,0.00
2023-02-01T04:57:46.004Z,0.00
2023-02-01T04:58:46.808Z,0.00
2023-02-01T04:59:45.949Z,0.00
2023-02-01T05:00:46.028Z,0.00
2023-02-01T05:01:48.575Z,0.00
2023-02-01T05:02:45.921Z,0.00
2023-02-01T05:03:45.922Z,0.00
2023-02-01T05:04:46.039Z,0.00
2023-02-01T05:05:45.953Z,0.00
2023-02-01T05:06:45.908Z,0.00
2023-02-01T05:07:45.896Z,0.00
2023-02-01T05:08:45.834Z,0.00
2023-02-01T05:09:46.686Z,0.00
2023-02-01T05:10:45.984Z,0.00
2023-02-01T05:11:45.849Z,0.00
2023-02-01T05:12:45.838Z,0.00
2023-02-01T05:13:45.822Z,0.00
2023-02-01T05:14:45.840Z,0.00
2023-02-01T05:15:45.819Z,0.00
2023-02-01T05:16:45.800Z,0.00
2023-02-01T05:17:45.836Z,0.00
2023-02-01T05:18:45.788Z,0.00
2023-02-01T05:19:45.776Z,0.00
2023-02-01T05:20:45.762Z,0.00
2023-02-01T05:21:45.774Z,0.00
2023-02-01T05:22:45.736Z,0.00
2023-02-01T05:23:46.155Z,0.00
2023-02-01T05:24:45.706Z,0.00
2023-02-01T05:25:45.732Z,0.00
2023-02-01T05:26:45.796Z,0.00
2023-02-01T05:27:45.642Z,0.00
2023-02-01T05:28:45.678Z,0.00
2023-02-01T05:29:45.658Z,0.00
2023-02-01T05:30:45.685Z,0.00
2023-02-01T05:31:45.766Z,0.00
2023-02-01T05:32:46.088Z,0.00
2023-02-01T05:33:45.588Z,0.00
2023-02-01T05:34:46.714Z,0.00
2023-02-01T05:35:45.682Z,0.00
2023-02-01T05:36:45.880Z,0.00
2023-02-01T05:37:45.996Z,0.00
2023-02-01T05:38:45.531Z,0.00
2023-02-01T05:39:45.635Z,0.00
2023-02-01T05:40:45.563Z,0.00
2023-02-01T05:41:45.567Z,0.00
2023-02-01T05:42:45.509Z,0.00
2023-02-01T05:43:45.565Z,0.00
2023-02-01T05:44:45.520Z,0.00
2023-02-01T05:45:45.516Z,0.00
2023-02-01T05:46:45.577Z,0.00
2023-02-01T05:47:46.339Z,0.00
2023-02-01T05:48:46.509Z,0.00
2023-02-01T05:49:45.463Z,0.00
2023-02-01T05:50:48.039Z,0.00
2023-02-01T05:51:45.520Z,0.00
2023-02-01T05:52:45.524Z,0.00
2023-02-01T05:53:45.381Z,0.00
2023-02-01T05:54:45.377Z,0.00
2023-02-01T05:55:45.357Z,0.00
2023-02-01T05:56:45.369Z,0.00
2023-02-01T05:57:45.974Z,0.00
2023-02-01T05:58:45.314Z,0.00
2023-02-01T05:59:45.354Z,0.00
2023-02-01T06:00:45.356Z,0.00
2023-02-01T06:01:45.330Z,0.00
2023-02-01T06:02:45.420Z,0.00
2023-02-01T06:03:45.333Z,0.00
2023-02-01T06:04:45.357Z,0.00
2023-02-01T06:05:45.220Z,0.00
2023-02-01T06:06:45.351Z,0.00
2023-02-01T06:07:45.197Z,0.00
2023-02-01T06:08:45.213Z,0.00
2023-02-01T06:09:45.219Z,0.00
2023-02-01T06:10:45.137Z,0.00
2023-02-01T06:11:45.200Z,0.00
2023-02-01T06:12:45.222Z,0.00
2023-02-01T06:13:45.148Z,0.00
2023-02-01T06:14:45.136Z,0.00
2023-02-01T06:15:45.716Z,0.00
2023-02-01T06:16:47.720Z,0.00
2023-02-01T06:17:45.144Z,0.00
2023-02-01T06:18:45.151Z,0.00
2023-02-01T06:19:45.118Z,0.00
2023-02-01T06:20:45.111Z,0.00
2023-02-01T06:21:45.077Z,0.00
2023-02-01T06:22:45.090Z,0.00
2023-02-01T06:23:45.096Z,0.00
2023-02-01T06:24:45.122Z,0.00
2023-02-01T06:25:51.209Z,0.00
2023-02-01T06:26:45.143Z,0.00
2023-02-01T06:27:45.091Z,0.00
2023-02-01T06:28:45.028Z,0.00
2023-02-01T06:29:45.054Z,0.00
2023-02-01T06:30:45.002Z,0.00
2023-02-01T06:31:45.047Z,0.00
2023-02-01T06:32:45.182Z,0.00
2023-02-01T06:33:44.943Z,0.00
2023-02-01T06:34:44.970Z,0.00
2023-02-01T06:35:44.942Z,4.00
2023-02-01T06:36:44.999Z,4.00
2023-02-01T06:37:44.905Z,0.00
2023-02-01T06:38:45.263Z,0.00
2023-02-01T06:39:44.939Z,4.00
2023-02-01T06:40:45.038Z,4.00
2023-02-01T06:41:45.792Z,4.00
2023-02-01T06:42:44.875Z,0.00
2023-02-01T06:43:44.897Z,4.00
2023-02-01T06:44:44.835Z,8.00
2023-02-01T06:45:45.439Z,4.00
2023-02-01T06:46:46.146Z,4.00
2023-02-01T06:47:44.812Z,4.00
2023-02-01T06:48:44.782Z,8.00
2023-02-01T06:49:44.754Z,8.00
2023-02-01T06:50:44.759Z,12.00
2023-02-01T06:51:44.812Z,12.00
2023-02-01T06:52:44.856Z,16.00
2023-02-01T06:53:44.760Z,12.00
2023-02-01T06:54:44.717Z,16.00
2023-02-01T06:55:44.683Z,20.00
2023-02-01T06:56:44.702Z,20.00
2023-02-01T06:57:44.687Z,24.00
2023-02-01T06:58:44.924Z,28.00
2023-02-01T06:59:44.750Z,36.00
2023-02-01T07:00:44.713Z,36.00
2023-02-01T07:01:45.521Z,36.00
2023-02-01T07:02:44.668Z,32.00
2023-02-01T07:03:44.609Z,32.00
2023-02-01T07:04:44.791Z,36.00
2023-02-01T07:05:44.594Z,40.00
2023-02-01T07:06:44.721Z,36.00
2023-02-01T07:07:44.774Z,36.00
2023-02-01T07:08:44.543Z,40.00
2023-02-01T07:09:44.531Z,48.00
2023-02-01T07:10:44.700Z,52.00
2023-02-01T07:11:44.524Z,60.00
2023-02-01T07:12:44.515Z,52.00
2023-02-01T07:13:44.915Z,52.00
2023-02-01T07:14:44.567Z,52.00
2023-02-01T07:15:44.518Z,60.00
2023-02-01T07:16:44.447Z,80.00
2023-02-01T07:17:44.535Z,100.00
2023-02-01T07:18:44.499Z,104.00
2023-02-01T07:19:44.469Z,120.00
2023-02-01T07:20:44.519Z,116.00
2023-02-01T07:21:44.438Z,132.00
2023-02-01T07:22:44.426Z,140.00
2023-02-01T07:23:44.395Z,156.00
2023-02-01T07:24:44.462Z,168.00
2023-02-01T07:25:44.384Z,184.00
2023-02-01T07:26:44.470Z,192.00
2023-02-01T07:27:44.385Z,220.00
2023-02-01T07:28:44.462Z,228.00
2023-02-01T07:29:44.478Z,236.00
2023-02-01T07:30:44.341Z,240.00
2023-02-01T07:31:44.335Z,276.00
2023-02-01T07:32:44.555Z,260.00
2023-02-01T07:33:44.400Z,260.00
2023-02-01T07:34:44.381Z,272.00
2023-02-01T07:35:44.253Z,276.00
2023-02-01T07:36:44.281Z,256.00
2023-02-01T07:37:44.621Z,232.00
2023-02-01T07:38:44.480Z,212.00
2023-02-01T07:39:44.273Z,172.00
2023-02-01T07:40:44.216Z,180.00
2023-02-01T07:41:49.387Z,204.00
2023-02-01T07:42:44.218Z,220.00
2023-02-01T07:43:44.513Z,268.00
2023-02-01T07:44:44.316Z,340.00
2023-02-01T07:45:45.250Z,352.00
2023-02-01T07:46:44.241Z,308.00
2023-02-01T07:47:44.180Z,296.00
2023-02-01T07:48:44.342Z,332.00
2023-02-01T07:49:44.195Z,372.00
2023-02-01T07:50:44.158Z,364.00
2023-02-01T07:51:44.233Z,380.00
2023-02-01T07:52:44.237Z,412.00
2023-02-01T07:53:44.066Z,464.00
2023-02-01T07:54:44.070Z,504.00
2023-02-01T07:55:45.095Z,592.00
2023-02-01T07:56:44.114Z,588.00
2023-02-01T07:57:44.007Z,552.00
2023-02-01T07:58:44.002Z,560.00
2023-02-01T07:59:44.023Z,560.00
2023-02-01T08:00:44.186Z,564.00
2023-02-01T08:01:44.047Z,652.00
2023-02-01T08:02:44.040Z,612.00
2023-02-01T08:03:44.025Z,584.00
2023-02-01T08:04:43.943Z,580.00
2023-02-01T08:05:48.724Z,500.00
2023-02-01T08:06:45.514Z,408.00
2023-02-01T08:07:43.874Z,436.00
2023-02-01T08:08:43.893Z,476.00
2023-02-01T08:09:43.864Z,492.00
2023-02-01T08:10:43.954Z,552.00
2023-02-01T08:11:43.852Z,516.00
2023-02-01T08:12:44.124Z,484.00
2023-02-01T08:13:43.881Z,560.00
2023-02-01T08:14:43.823Z,524.00
2023-02-01T08:15:43.820Z,512.00
2023-02-01T08:16:43.892Z,556.00
2023-02-01T08:17:45.391Z,640.00
2023-02-01T08:18:43.863Z,700.00
2023-02-01T08:19:43.848Z,888.00
2023-02-01T08:20:43.793Z,1076.00
2023-02-01T08:21:43.820Z,980.00
2023-02-01T08:22:43.778Z,684.00
2023-02-01T08:23:43.714Z,528.00
2023-02-01T08:24:43.863Z,456.00
2023-02-01T08:25:43.743Z,480.00
2023-02-01T08:26:43.797Z,560.00
2023-02-01T08:27:43.686Z,568.00
2023-02-01T08:28:43.792Z,648.00
2023-02-01T08:29:43.663Z,764.00
2023-02-01T08:30:43.778Z,892.00
2023-02-01T08:31:43.683Z,1020.00
2023-02-01T08:32:43.803Z,988.00
2023-02-01T08:33:43.596Z,1100.00
2023-02-01T08:34:43.628Z,1236.00
2023-02-01T08:35:44.359Z,1224.00
2023-02-01T08:36:44.652Z,1072.00
2023-02-01T08:37:43.732Z,1024.00
2023-02-01T08:38:43.607Z,1044.00
2023-02-01T08:39:44.261Z,1020.00
2023-02-01T08:40:43.555Z,1120.00
2023-02-01T08:41:45.351Z,1148.00
2023-02-01T08:42:43.744Z,1336.00
2023-02-01T08:43:43.764Z,1568.00
2023-02-01T08:44:44.732Z,1840.00
2023-02-01T08:45:47.436Z,1644.00
2023-02-01T08:46:45.626Z,1564.00
2023-02-01T08:47:47.676Z,1768.00
2023-02-01T08:48:47.179Z,1860.00
2023-02-01T08:49:46.993Z,1748.00
2023-02-01T08:50:44.912Z,1664.00
2023-02-01T08:51:44.171Z,1684.00
2023-02-01T08:52:43.597Z,1616.00
2023-02-01T08:53:43.413Z,1600.00
2023-02-01T08:54:43.392Z,1760.00
2023-02-01T08:55:43.479Z,1996.00
2023-02-01T08:56:43.361Z,2224.00
2023-02-01T08:57:43.490Z,2348.00
2023-02-01T08:58:44.123Z,2244.00
2023-02-01T08:59:43.512Z,2256.00
2023-02-01T09:00:43.362Z,2220.00
2023-02-01T09:01:43.399Z,2204.00
2023-02-01T09:02:43.369Z,2064.00
2023-02-01T09:03:43.467Z,2012.00
2023-02-01T09:04:43.292Z,2028.00
2023-02-01T09:05:49.509Z,1912.00
2023-02-01T09:06:45.541Z,2092.00
2023-02-01T09:07:46.408Z,2668.00
2023-02-01T09:08:43.384Z,2596.00
2023-02-01T09:09:43.665Z,2696.00
2023-02-01T09:10:43.364Z,3000.00
2023-02-01T09:11:43.307Z,3016.00
2023-02-01T09:12:43.230Z,2676.00
2023-02-01T09:13:43.522Z,2608.00
2023-02-01T09:14:43.260Z,2592.00
2023-02-01T09:15:43.526Z,2824.00
2023-02-01T09:16:43.382Z,2860.00
2023-02-01T09:17:43.148Z,2400.00
2023-02-01T09:18:55.443Z,2428.00
2023-02-01T09:19:44.482Z,2572.00
2023-02-01T09:20:43.104Z,2648.00
2023-02-01T09:21:43.148Z,2636.00
2023-02-01T09:22:44.450Z,2388.00
2023-02-01T09:23:44.163Z,2268.00
2023-02-01T09:24:43.403Z,2352.00
2023-02-01T09:25:43.170Z,2816.00
2023-02-01T09:26:42.994Z,3452.00
2023-02-01T09:27:43.106Z,3740.00
2023-02-01T09:28:43.056Z,4024.00
2023-02-01T09:29:43.009Z,4340.00
2023-02-01T09:30:44.217Z,4500.00
2023-02-01T09:31:49.899Z,4004.00
2023-02-01T09:32:44.997Z,3604.00
2023-02-01T09:33:42.969Z,3324.00
2023-02-01T09:34:43.543Z,3120.00
2023-02-01T09:35:43.085Z,3304.00
2023-02-01T09:36:42.971Z,3496.00
2023-02-01T09:37:42.902Z,3716.00
2023-02-01T09:38:52.391Z,4412.00
2023-02-01T09:39:44.905Z,4100.00
2023-02-01T09:40:42.877Z,3648.00
2023-02-01T09:41:43.783Z,4592.00
2023-02-01T09:42:42.805Z,5516.00
2023-02-01T09:43:42.806Z,5856.00
2023-02-01T09:44:44.605Z,5600.00
2023-02-01T09:45:43.851Z,4984.00
2023-02-01T09:46:42.803Z,4504.00
2023-02-01T09:47:42.789Z,4412.00
2023-02-01T09:48:42.790Z,5544.00
2023-02-01T09:49:42.764Z,7536.00
2023-02-01T09:50:42.768Z,8624.00
2023-02-01T09:51:42.750Z,7532.00
2023-02-01T09:52:42.774Z,7488.00
2023-02-01T09:53:42.691Z,5368.00
2023-02-01T09:54:42.698Z,4340.00
2023-02-01T09:55:42.759Z,4956.00
2023-02-01T09:56:42.728Z,4716.00
2023-02-01T09:57:42.647Z,4340.00
2023-02-01T09:58:42.760Z,5376.00
2023-02-01T09:59:42.647Z,5568.00
2023-02-01T10:00:42.659Z,5100.00
2023-02-01T10:01:42.728Z,6556.00
2023-02-01T10:02:42.673Z,8964.00
2023-02-01T10:03:42.726Z,6140.00
2023-02-01T10:04:42.590Z,6280.00
2023-02-01T10:05:42.552Z,7176.00
2023-02-01T10:06:42.674Z,6588.00
2023-02-01T10:07:42.632Z,5840.00
2023-02-01T10:08:42.586Z,6768.00
2023-02-01T10:09:42.704Z,6816.00
2023-02-01T10:10:42.523Z,5468.00
2023-02-01T10:11:42.653Z,6716.00
2023-02-01T10:12:42.487Z,8036.00
2023-02-01T10:13:42.533Z,9500.00
2023-02-01T10:14:42.482Z,7336.00
2023-02-01T10:15:42.543Z,5428.00
2023-02-01T10:16:42.580Z,4492.00
2023-02-01T10:17:42.458Z,3968.00
2023-02-01T10:18:42.678Z,4900.00
2023-02-01T10:19:42.397Z,4872.00
2023-02-01T10:20:42.517Z,3444.00
2023-02-01T10:21:42.402Z,3484.00
2023-02-01T10:23:00.318Z,3624.00
2023-02-01T10:23:44.455Z,3740.00
2023-02-01T10:24:43.180Z,3280.00
2023-02-01T10:25:42.427Z,3080.00
2023-02-01T10:26:42.351Z,2900.00
2023-02-01T10:27:42.420Z,3280.00
2023-02-01T10:28:42.358Z,2784.00
2023-02-01T10:29:42.301Z,2088.00
2023-02-01T10:30:42.313Z,2024.00
2023-02-01T10:31:42.353Z,1936.00
2023-02-01T10:32:42.299Z,2484.00
2023-02-01T10:33:42.415Z,2488.00
2023-02-01T10:34:42.454Z,2192.00
2023-02-01T10:35:42.281Z,2836.00
2023-02-01T10:36:42.283Z,3228.00
2023-02-01T10:37:42.198Z,3512.00
2023-02-01T10:38:42.230Z,3864.00
2023-02-01T10:39:42.485Z,3784.00
2023-02-01T10:40:42.164Z,3824.00
2023-02-01T10:41:42.407Z,3548.00
2023-02-01T10:42:43.175Z,3380.00
2023-02-01T10:43:42.214Z,3204.00
2023-02-01T10:44:42.149Z,3816.00
2023-02-01T10:45:42.221Z,4128.00
2023-02-01T10:46:42.228Z,3268.00
2023-02-01T10:47:42.109Z,3628.00
2023-02-01T10:48:42.184Z,3648.00
2023-02-01T10:49:42.152Z,3744.00
2023-02-01T10:50:42.080Z,3612.00
2023-02-01T10:51:42.107Z,3652.00
2023-02-01T10:52:42.066Z,3496.00
2023-02-01T10:53:42.104Z,3900.00
2023-02-01T10:54:42.002Z,3984.00
2023-02-01T10:55:42.045Z,4328.00
2023-02-01T10:56:42.129Z,4188.00
2023-02-01T10:57:42.070Z,4240.00
2023-02-01T10:58:42.036Z,3504.00
2023-02-01T10:59:43.707Z,3764.00
2023-02-01T11:00:42.280Z,4384.00
2023-02-01T11:01:42.005Z,5372.00
2023-02-01T11:02:41.978Z,4972.00
2023-02-01T11:03:42.059Z,4096.00
2023-02-01T11:04:41.922Z,3840.00
2023-02-01T11:05:43.179Z,4336.00
2023-02-01T11:06:43.765Z,3948.00
2023-02-01T11:07:42.097Z,5876.00
2023-02-01T11:08:41.991Z,4160.00
2023-02-01T11:09:43.173Z,3520.00
2023-02-01T11:10:43.014Z,3140.00
2023-02-01T11:11:41.964Z,3252.00
2023-02-01T11:12:41.928Z,2952.00
2023-02-01T11:13:41.865Z,2940.00
2023-02-01T11:14:41.817Z,3316.00
2023-02-01T11:15:41.909Z,3840.00
2023-02-01T11:16:41.785Z,4164.00
2023-02-01T11:17:41.989Z,4268.00
2023-02-01T11:18:44.903Z,4536.00
2023-02-01T11:19:42.664Z,5552.00
2023-02-01T11:20:42.005Z,6552.00
2023-02-01T11:21:41.725Z,6644.00
2023-02-01T11:22:43.908Z,6860.00
2023-02-01T11:23:43.264Z,5732.00
2023-02-01T11:24:44.020Z,6780.00
2023-02-01T11:25:41.677Z,6752.00
2023-02-01T11:26:41.773Z,6528.00
2023-02-01T11:27:53.244Z,7116.00
2023-02-01T11:28:43.630Z,6788.00
2023-02-01T11:29:41.622Z,7116.00
2023-02-01T11:30:41.661Z,8696.00
2023-02-01T11:31:41.827Z,8572.00
2023-02-01T11:32:41.678Z,7528.00
2023-02-01T11:33:41.597Z,6784.00
2023-02-01T11:34:41.662Z,6664.00
2023-02-01T11:35:41.681Z,5800.00
2023-02-01T11:36:41.615Z,5132.00
2023-02-01T11:37:41.511Z,4380.00
2023-02-01T11:38:41.530Z,4308.00
2023-02-01T11:40:13.891Z,4900.00
2023-02-01T11:41:14.887Z,4380.00
2023-02-01T11:42:15.192Z,4148.00
2023-02-01T11:43:14.309Z,4092.00
2023-02-01T11:44:13.838Z,4440.00
2023-02-01T11:45:13.833Z,4580.00
2023-02-01T11:46:13.959Z,5296.00
2023-02-01T11:47:14.635Z,5008.00
2023-02-01T11:48:26.158Z,6804.00
2023-02-01T11:49:14.341Z,21664.00
2023-02-01T11:50:14.207Z,11108.00
2023-02-01T11:51:13.929Z,11108.00
2023-02-01T11:52:15.054Z,17920.00
2023-02-01T11:52:43.908Z,11668.00
2023-02-01T11:53:43.436Z,10648.00
2023-02-01T11:54:44.717Z,9908.00
2023-02-01T11:55:41.987Z,9500.00
2023-02-01T11:56:41.344Z,13752.00
2023-02-01T11:57:41.333Z,13600.00
2023-02-01T11:58:41.446Z,14340.00
2023-02-01T11:59:48.692Z,18048.00
2023-02-01T12:00:42.307Z,15296.00
2023-02-01T12:01:41.398Z,16064.00
2023-02-01T12:02:41.309Z,18656.00
2023-02-01T12:03:41.303Z,19264.00
2023-02-01T12:04:41.331Z,16096.00
2023-02-01T12:05:41.278Z,14120.00
2023-02-01T12:06:41.240Z,14636.00
2023-02-01T12:07:41.273Z,16928.00
2023-02-01T12:08:41.286Z,17984.00
2023-02-01T12:09:41.228Z,14188.00
2023-02-01T12:10:41.407Z,13820.00
2023-02-01T12:11:41.194Z,13440.00
2023-02-01T12:12:42.252Z,13184.00
2023-02-01T12:13:41.402Z,17792.00
2023-02-01T12:14:41.930Z,10720.00
2023-02-01T12:15:41.181Z,10112.00
2023-02-01T12:16:42.275Z,10572.00
2023-02-01T12:17:41.124Z,10192.00
2023-02-01T12:18:41.196Z,7348.00
2023-02-01T12:19:41.174Z,6544.00
2023-02-01T12:20:41.449Z,7804.00
2023-02-01T12:21:41.073Z,8076.00
2023-02-01T12:22:41.089Z,6648.00
2023-02-01T12:23:41.190Z,6852.00
2023-02-01T12:24:41.151Z,6540.00
2023-02-01T12:25:41.079Z,6636.00
2023-02-01T12:26:41.230Z,7060.00
2023-02-01T12:27:41.017Z,6724.00
2023-02-01T12:28:41.050Z,7012.00
2023-02-01T12:29:41.231Z,7700.00
2023-02-01T12:30:40.996Z,8128.00
2023-02-01T12:31:41.190Z,7628.00
2023-02-01T12:32:40.936Z,7508.00
2023-02-01T12:33:40.940Z,9592.00
2023-02-01T12:34:41.072Z,10040.00
2023-02-01T12:35:41.479Z,8732.00
2023-02-01T12:36:40.919Z,7844.00
2023-02-01T12:37:40.920Z,7816.00
2023-02-01T12:38:41.133Z,7392.00
2023-02-01T12:39:40.924Z,7920.00
2023-02-01T12:40:40.823Z,9224.00
2023-02-01T12:41:40.905Z,21664.00
2023-02-01T12:42:40.828Z,23904.00
2023-02-01T12:43:40.812Z,31072.00
2023-02-01T12:44:41.233Z,20480.00
2023-02-01T12:45:40.809Z,13736.00